^^
Grace C. Lehan Memorial Weather Station Historical Data
Daily Summary for March 7, 2021 Units:  English    Metric   Both
Daily Weekly Monthly Yearly
  High: Low: Average:
Temperature: 37.4 °F 28.7 °F 30.9 °F
Dew Point: 35.3 °F 26.9 °F 28.7 °F
Humidity: 95% 84% 91%
Wind Speed: 0mph 0mph 0mph
Wind Gust: 0mph - -
Wind- -
Pressure: 30.26 in 30.22 in -
Precipitation: 0.00 in    
 
 
Tabular Data for March 7, 2021
Time Temperature Dew Point Pressure Wind Wind Speed Wind Gust Humidity Rainfall Rate (Hourly) solar
00:00 35.2 °F 30.9 °F 30.26 in Calm     84% 0.00 in 0 W/m2
00:09 35 °F 30.8 °F 30.26 in Calm     84.7% 0.00 in 0 W/m2
00:14 34.7 °F 30.4 °F 30.26 in Calm     84% 0.00 in 0 W/m2
00:19 34.4 °F 30.3 °F 30.26 in Calm     84.8% 0.00 in 0 W/m2
00:24 34.1 °F 30.1 °F 30.26 in Calm     85% 0.00 in 0 W/m2
00:29 33.9 °F 30.1 °F 30.25 in Calm     85.8% 0.00 in 0 W/m2
00:34 33.8 °F 30.4 °F 30.25 in Calm     87.1% 0.00 in 0 W/m2
00:39 33.7 °F 30.2 °F 30.25 in Calm     86.8% 0.00 in 0 W/m2
00:44 33.6 °F 30.1 °F 30.25 in Calm     87% 0.00 in 0 W/m2
00:49 33.5 °F 30 °F 30.25 in Calm     87% 0.00 in 0 W/m2
00:54 33.3 °F 29.9 °F 30.25 in Calm     87% 0.00 in 0 W/m2
00:59 33.1 °F 29.7 °F 30.25 in Calm     87% 0.00 in 0 W/m2
01:04 33 °F 29.6 °F 30.25 in Calm     87.1% 0.00 in 0 W/m2
01:09 32.9 °F 29.7 °F 30.25 in Calm     88% 0.00 in 0 W/m2
01:14 32.8 °F 29.6 °F 30.25 in Calm     88% 0.00 in 0 W/m2
01:19 32.7 °F 29.6 °F 30.25 in Calm     88.2% 0.00 in 0 W/m2
01:24 32.6 °F 29.8 °F 30.25 in Calm     89% 0.00 in 0 W/m2
01:29 32.6 °F 29.7 °F 30.25 in Calm     89% 0.00 in 0 W/m2
01:34 32.5 °F 29.7 °F 30.25 in Calm     89% 0.00 in 0 W/m2
01:39 32.5 °F 29.6 °F 30.25 in Calm     89% 0.00 in 0 W/m2
01:44 32.4 °F 29.5 °F 30.25 in Calm     89% 0.00 in 0 W/m2
01:49 32.4 °F 29.5 °F 30.25 in Calm     89% 0.00 in 0 W/m2
01:54 32.3 °F 29.4 °F 30.25 in Calm     89.1% 0.00 in 0 W/m2
01:59 32 °F 29.4 °F 30.25 in Calm     90% 0.00 in 0 W/m2
01:00 31.4 °F 29.1 °F 30.25 in Calm     91% 0.00 in 0 W/m2
02:04 31.4 °F 29.1 °F 30.25 in Calm     91% 0.00 in 0 W/m2
02:09 31.3 °F 29 °F 30.25 in Calm     91% 0.00 in 0 W/m2
02:14 31.2 °F 28.9 °F 30.25 in Calm     91% 0.00 in 0 W/m2
02:19 31.2 °F 28.9 °F 30.25 in Calm     91% 0.00 in 0 W/m2
02:24 31.1 °F 28.8 °F 30.25 in Calm     91% 0.00 in 0 W/m2
02:29 31.1 °F 28.8 °F 30.25 in Calm     91% 0.00 in 0 W/m2
02:34 31.1 °F 28.8 °F 30.25 in Calm     91% 0.00 in 0 W/m2
02:39 31 °F 28.7 °F 30.25 in Calm     91% 0.00 in 0 W/m2
02:44 31 °F 28.7 °F 30.25 in Calm     91% 0.00 in 0 W/m2
02:49 30.9 °F 28.6 °F 30.24 in Calm     91.3% 0.00 in 0 W/m2
02:54 30.8 °F 28.7 °F 30.24 in Calm     92% 0.00 in 0 W/m2
02:59 30.7 °F 28.7 °F 30.23 in Calm     92% 0.00 in 0 W/m2
03:04 30.6 °F 28.6 °F 30.24 in Calm     92% 0.00 in 0 W/m2
03:09 30.5 °F 28.5 °F 30.24 in Calm     92% 0.00 in 0 W/m2
03:14 30.5 °F 28.5 °F 30.24 in Calm     92% 0.00 in 0 W/m2
03:19 30.5 °F 28.5 °F 30.24 in Calm     92% 0.00 in 0 W/m2
03:24 30.4 °F 28.4 °F 30.23 in Calm     92% 0.00 in 0 W/m2
03:29 30.4 °F 28.3 °F 30.23 in Calm     92% 0.00 in 0 W/m2
03:34 30.3 °F 28.3 °F 30.23 in Calm     92% 0.00 in 0 W/m2
03:39 30.3 °F 28.2 °F 30.23 in Calm     92% 0.00 in 0 W/m2
03:44 30.2 °F 28.2 °F 30.23 in Calm     92% 0.00 in 0 W/m2
03:49 30.1 °F 28.1 °F 30.23 in Calm     92% 0.00 in 0 W/m2
03:54 30 °F 28 °F 30.22 in Calm     92% 0.00 in 0 W/m2
03:59 29.9 °F 27.9 °F 30.23 in Calm     92% 0.00 in 0 W/m2
04:09 29.8 °F 27.8 °F 30.22 in Calm     92% 0.00 in 0 W/m2
04:14 29.8 °F 27.8 °F 30.22 in Calm     92% 0.00 in 0 W/m2
04:19 29.8 °F 27.8 °F 30.22 in Calm     92% 0.00 in 0 W/m2
04:24 29.9 °F 27.8 °F 30.22 in Calm     92% 0.00 in 0 W/m2
04:29 29.9 °F 27.9 °F 30.22 in Calm     92.1% 0.00 in 0 W/m2
04:34 29.8 °F 27.9 °F 30.22 in Calm     92.4% 0.00 in 0 W/m2
04:39 29.7 °F 27.7 °F 30.22 in Calm     92% 0.00 in 0 W/m2
04:44 29.6 °F 27.6 °F 30.22 in Calm     92% 0.00 in 0 W/m2
04:49 29.5 °F 27.5 °F 30.22 in Calm     92% 0.00 in 0 W/m2
04:54 29.4 °F 27.4 °F 30.22 in Calm     92% 0.00 in 0 W/m2
04:59 29.4 °F 27.4 °F 30.22 in Calm     92% 0.00 in 0 W/m2
05:04 29.4 °F 27.4 °F 30.22 in Calm     92% 0.00 in 0 W/m2
05:09 29.4 °F 27.4 °F 30.22 in Calm     92% 0.00 in 0 W/m2
05:14 29.3 °F 27.3 °F 30.22 in Calm     92% 0.00 in 0 W/m2
05:19 29.3 °F 27.3 °F 30.22 in Calm     92% 0.00 in 0 W/m2
05:24 29.2 °F 27.2 °F 30.22 in Calm     92% 0.00 in 0 W/m2
05:29 29.2 °F 27.2 °F 30.22 in Calm     92% 0.00 in 0 W/m2
05:34 29.2 °F 27.4 °F 30.22 in Calm     93% 0.00 in 0 W/m2
05:39 29.2 °F 27.4 °F 30.22 in Calm     93% 0.00 in 0 W/m2
05:44 29.1 °F 27.3 °F 30.22 in Calm     93% 0.00 in 0 W/m2
05:49 29.1 °F 27.3 °F 30.22 in Calm     93% 0.00 in 0 W/m2
05:54 29.1 °F 27.3 °F 30.22 in Calm     93% 0.00 in 0 W/m2
05:59 29 °F 27.2 °F 30.22 in Calm     93% 0.00 in 0 W/m2
06:04 29 °F 27.2 °F 30.22 in Calm     93% 0.00 in 0 W/m2
06:09 29 °F 27.2 °F 30.22 in Calm     93% 0.00 in 0 W/m2
06:14 29 °F 27.2 °F 30.22 in Calm     93% 0.00 in 0 W/m2
06:19 29 °F 27.2 °F 30.23 in Calm     93% 0.00 in 0 W/m2
06:24 28.9 °F 27.2 °F 30.23 in Calm     93% 0.00 in 0 W/m2
06:29 28.8 °F 27.1 °F 30.23 in Calm     93% 0.00 in 0 W/m2
06:34 28.8 °F 27 °F 30.23 in Calm     93% 0.00 in 0 W/m2
06:39 28.7 °F 26.9 °F 30.22 in Calm     93% 0.00 in 7 W/m2
06:44 28.7 °F 27 °F 30.23 in Calm     93% 0.00 in 11 W/m2
06:49 28.8 °F 27 °F 30.23 in Calm     93% 0.00 in 12 W/m2
06:54 28.8 °F 27 °F 30.23 in Calm     93% 0.00 in 18 W/m2
06:59 28.8 °F 27 °F 30.24 in Calm     93% 0.00 in 21 W/m2
07:04 28.9 °F 27.1 °F 30.23 in Calm     93% 0.00 in 18 W/m2
07:09 29 °F 27.2 °F 30.23 in Calm     93% 0.00 in 19 W/m2
07:14 29.2 °F 27.5 °F 30.24 in Calm     93% 0.00 in 14 W/m2
07:19 29.4 °F 27.8 °F 30.24 in Calm     93.5% 0.00 in 16 W/m2
07:24 29.6 °F 28.1 °F 30.24 in Calm     94% 0.00 in 18 W/m2
07:29 29.7 °F 28.2 °F 30.24 in Calm     93.9% 0.00 in 19 W/m2
07:34 29.8 °F 28 °F 30.24 in Calm     93% 0.00 in 21 W/m2
07:39 29.8 °F 28 °F 30.24 in Calm     93% 0.00 in 30 W/m2
07:44 29.7 °F 27.9 °F 30.23 in Calm     93% 0.00 in 37 W/m2
07:49 29.8 °F 28 °F 30.24 in Calm     93% 0.00 in 63 W/m2
07:54 30 °F 28.3 °F 30.24 in Calm     93.1% 0.00 in 79 W/m2
07:59 30.3 °F 28.8 °F 30.23 in Calm     94% 0.00 in 181 W/m2
08:00 30.5 °F 29 °F 30.23 in Calm     94% 0.00 in 181 W/m2
08:09 31.8 °F 30.3 °F 30.23 in Calm     94.2% 0.00 in 229 W/m2
08:14 32.7 °F 31.3 °F 30.23 in Calm     94.7% 0.00 in 267 W/m2
08:19 33.5 °F 32.2 °F 30.23 in Calm     95% 0.00 in 302 W/m2
08:24 34.5 °F 33.3 °F 30.23 in Calm     95% 0.00 in 311 W/m2
08:29 35.6 °F 34.2 °F 30.23 in Calm     94.6% 0.00 in 325 W/m2
08:34 36.7 °F 35 °F 30.23 in Calm     93.7% 0.00 in 343 W/m2
08:38 37.4 °F 35.3 °F 30.23 in Calm     92.1% 0.00 in 334 W/m2
Hartford County Weather
Compliments of Weather Underground - 4 mb